sensor_id;sensor_type;location;lat;lon;timestamp;temperature;humidity
80250;DHT22;69561;37.974;23.708;2023-05-16T00:00:17;24.40;40.70
80250;DHT22;69561;37.974;23.708;2023-05-16T00:02:43;24.30;40.80
80250;DHT22;69561;37.974;23.708;2023-05-16T00:05:09;24.40;40.80
80250;DHT22;69561;37.974;23.708;2023-05-16T00:07:45;24.30;40.90
80250;DHT22;69561;37.974;23.708;2023-05-16T00:10:12;24.40;40.90
80250;DHT22;69561;37.974;23.708;2023-05-16T00:12:38;24.30;40.90
80250;DHT22;69561;37.974;23.708;2023-05-16T00:15:09;24.40;40.90
80250;DHT22;69561;37.974;23.708;2023-05-16T00:17:37;24.30;40.90
80250;DHT22;69561;37.974;23.708;2023-05-16T00:20:03;24.30;40.90
80250;DHT22;69561;37.974;23.708;2023-05-16T00:22:36;24.30;40.90
80250;DHT22;69561;37.974;23.708;2023-05-16T00:25:02;24.30;40.90
80250;DHT22;69561;37.974;23.708;2023-05-16T00:27:28;24.30;41.00
80250;DHT22;69561;37.974;23.708;2023-05-16T00:29:55;24.30;41.00
80250;DHT22;69561;37.974;23.708;2023-05-16T00:32:20;24.30;41.00
80250;DHT22;69561;37.974;23.708;2023-05-16T00:34:46;24.30;40.90
80250;DHT22;69561;37.974;23.708;2023-05-16T00:37:12;24.30;40.90
80250;DHT22;69561;37.974;23.708;2023-05-16T00:39:38;24.30;41.00
80250;DHT22;69561;37.974;23.708;2023-05-16T00:42:05;24.30;41.00
80250;DHT22;69561;37.974;23.708;2023-05-16T00:44:31;24.30;41.00
80250;DHT22;69561;37.974;23.708;2023-05-16T00:46:57;24.30;41.00
80250;DHT22;69561;37.974;23.708;2023-05-16T00:49:24;24.30;41.00
80250;DHT22;69561;37.974;23.708;2023-05-16T00:51:51;24.30;41.00
80250;DHT22;69561;37.974;23.708;2023-05-16T00:54:18;24.30;41.00
80250;DHT22;69561;37.974;23.708;2023-05-16T00:56:47;24.30;41.00
80250;DHT22;69561;37.974;23.708;2023-05-16T00:59:12;24.30;41.10
80250;DHT22;69561;37.974;23.708;2023-05-16T01:01:41;24.30;41.10
80250;DHT22;69561;37.974;23.708;2023-05-16T01:04:11;24.30;41.10
80250;DHT22;69561;37.974;23.708;2023-05-16T01:06:36;24.30;41.20
80250;DHT22;69561;37.974;23.708;2023-05-16T01:09:02;24.40;41.30
80250;DHT22;69561;37.974;23.708;2023-05-16T01:11:36;24.40;41.30
80250;DHT22;69561;37.974;23.708;2023-05-16T01:17:23;24.40;41.30
80250;DHT22;69561;37.974;23.708;2023-05-16T01:28:01;24.40;41.50
80250;DHT22;69561;37.974;23.708;2023-05-16T01:30:38;24.30;41.40
80250;DHT22;69561;37.974;23.708;2023-05-16T01:33:04;24.40;41.50
80250;DHT22;69561;37.974;23.708;2023-05-16T01:35:30;24.40;41.50
80250;DHT22;69561;37.974;23.708;2023-05-16T01:40:28;24.40;41.50
80250;DHT22;69561;37.974;23.708;2023-05-16T01:42:55;24.40;41.50
80250;DHT22;69561;37.974;23.708;2023-05-16T01:45:28;24.40;41.50
80250;DHT22;69561;37.974;23.708;2023-05-16T01:48:13;24.40;41.50
80250;DHT22;69561;37.974;23.708;2023-05-16T01:50:49;24.40;41.50
80250;DHT22;69561;37.974;23.708;2023-05-16T01:53:21;24.40;41.50
80250;DHT22;69561;37.974;23.708;2023-05-16T01:55:50;24.40;41.50
80250;DHT22;69561;37.974;23.708;2023-05-16T01:58:19;24.40;41.50
80250;DHT22;69561;37.974;23.708;2023-05-16T02:00:45;24.40;41.60
80250;DHT22;69561;37.974;23.708;2023-05-16T02:03:11;24.40;41.70
80250;DHT22;69561;37.974;23.708;2023-05-16T02:05:37;24.40;41.70
80250;DHT22;69561;37.974;23.708;2023-05-16T02:08:03;24.40;41.80
80250;DHT22;69561;37.974;23.708;2023-05-16T02:10:29;24.40;41.90
80250;DHT22;69561;37.974;23.708;2023-05-16T02:12:56;24.40;41.90
80250;DHT22;69561;37.974;23.708;2023-05-16T02:15:22;24.40;41.90
80250;DHT22;69561;37.974;23.708;2023-05-16T02:17:48;24.40;42.00
80250;DHT22;69561;37.974;23.708;2023-05-16T02:20:14;24.40;42.20
80250;DHT22;69561;37.974;23.708;2023-05-16T02:22:40;24.50;42.30
80250;DHT22;69561;37.974;23.708;2023-05-16T02:25:07;24.40;43.30
80250;DHT22;69561;37.974;23.708;2023-05-16T02:27:33;24.40;42.30
80250;DHT22;69561;37.974;23.708;2023-05-16T02:29:59;24.40;42.60
80250;DHT22;69561;37.974;23.708;2023-05-16T02:32:24;24.50;42.80
80250;DHT22;69561;37.974;23.708;2023-05-16T02:34:50;24.40;43.80
80250;DHT22;69561;37.974;23.708;2023-05-16T02:37:16;24.30;43.10
80250;DHT22;69561;37.974;23.708;2023-05-16T02:39:42;24.30;43.30
80250;DHT22;69561;37.974;23.708;2023-05-16T02:42:08;24.30;43.40
80250;DHT22;69561;37.974;23.708;2023-05-16T02:44:33;24.40;43.50
80250;DHT22;69561;37.974;23.708;2023-05-16T02:46:59;24.30;43.40
80250;DHT22;69561;37.974;23.708;2023-05-16T02:49:25;24.40;43.50
80250;DHT22;69561;37.974;23.708;2023-05-16T02:51:50;24.40;43.50
80250;DHT22;69561;37.974;23.708;2023-05-16T02:54:16;24.30;43.40
80250;DHT22;69561;37.974;23.708;2023-05-16T02:56:42;24.30;43.50
80250;DHT22;69561;37.974;23.708;2023-05-16T02:59:10;24.30;44.50
80250;DHT22;69561;37.974;23.708;2023-05-16T03:01:35;24.40;43.60
80250;DHT22;69561;37.974;23.708;2023-05-16T03:04:01;24.40;43.60
80250;DHT22;69561;37.974;23.708;2023-05-16T03:06:27;24.30;43.60
80250;DHT22;69561;37.974;23.708;2023-05-16T03:08:52;24.30;43.70
80250;DHT22;69561;37.974;23.708;2023-05-16T03:11:18;24.30;43.70
80250;DHT22;69561;37.974;23.708;2023-05-16T03:13:49;24.30;43.70
80250;DHT22;69561;37.974;23.708;2023-05-16T03:16:15;24.30;43.60
80250;DHT22;69561;37.974;23.708;2023-05-16T03:18:41;24.30;43.60
80250;DHT22;69561;37.974;23.708;2023-05-16T03:21:07;24.40;43.70
80250;DHT22;69561;37.974;23.708;2023-05-16T03:23:33;24.30;43.60
80250;DHT22;69561;37.974;23.708;2023-05-16T03:25:59;24.30;43.80
80250;DHT22;69561;37.974;23.708;2023-05-16T03:28:26;24.30;43.80
80250;DHT22;69561;37.974;23.708;2023-05-16T03:30:52;24.30;43.90
80250;DHT22;69561;37.974;23.708;2023-05-16T03:33:18;24.30;44.00
80250;DHT22;69561;37.974;23.708;2023-05-16T03:35:43;24.30;44.00
80250;DHT22;69561;37.974;23.708;2023-05-16T03:38:09;24.30;44.10
80250;DHT22;69561;37.974;23.708;2023-05-16T03:40:35;24.30;44.10
80250;DHT22;69561;37.974;23.708;2023-05-16T03:43:02;24.30;44.10
80250;DHT22;69561;37.974;23.708;2023-05-16T03:45:29;24.30;44.10
80250;DHT22;69561;37.974;23.708;2023-05-16T03:47:55;24.30;44.00
80250;DHT22;69561;37.974;23.708;2023-05-16T03:50:21;24.20;44.20
80250;DHT22;69561;37.974;23.708;2023-05-16T03:52:46;24.30;44.20
80250;DHT22;69561;37.974;23.708;2023-05-16T03:55:12;24.20;44.10
80250;DHT22;69561;37.974;23.708;2023-05-16T03:57:40;24.30;44.10
80250;DHT22;69561;37.974;23.708;2023-05-16T04:00:09;24.30;44.10
80250;DHT22;69561;37.974;23.708;2023-05-16T04:02:38;24.30;44.00
80250;DHT22;69561;37.974;23.708;2023-05-16T04:05:09;24.30;44.00
80250;DHT22;69561;37.974;23.708;2023-05-16T04:07:36;24.30;44.00
80250;DHT22;69561;37.974;23.708;2023-05-16T04:10:02;24.30;44.00
80250;DHT22;69561;37.974;23.708;2023-05-16T04:12:28;24.30;44.00
80250;DHT22;69561;37.974;23.708;2023-05-16T04:14:54;24.30;44.00
80250;DHT22;69561;37.974;23.708;2023-05-16T04:17:20;24.40;44.10
80250;DHT22;69561;37.974;23.708;2023-05-16T04:19:45;24.30;44.00
80250;DHT22;69561;37.974;23.708;2023-05-16T04:22:11;24.40;44.00
80250;DHT22;69561;37.974;23.708;2023-05-16T04:24:37;24.40;44.20
80250;DHT22;69561;37.974;23.708;2023-05-16T04:27:03;24.50;44.50
80250;DHT22;69561;37.974;23.708;2023-05-16T04:29:29;24.50;44.40
80250;DHT22;69561;37.974;23.708;2023-05-16T04:31:56;24.50;44.30
80250;DHT22;69561;37.974;23.708;2023-05-16T04:34:22;24.50;44.10
80250;DHT22;69561;37.974;23.708;2023-05-16T04:36:55;24.50;44.00
80250;DHT22;69561;37.974;23.708;2023-05-16T04:39:21;24.60;44.10
80250;DHT22;69561;37.974;23.708;2023-05-16T04:41:47;24.60;44.00
80250;DHT22;69561;37.974;23.708;2023-05-16T04:44:13;24.60;43.90
80250;DHT22;69561;37.974;23.708;2023-05-16T04:46:38;24.60;43.90
80250;DHT22;69561;37.974;23.708;2023-05-16T04:49:04;24.60;43.80
80250;DHT22;69561;37.974;23.708;2023-05-16T04:51:30;24.70;43.70
80250;DHT22;69561;37.974;23.708;2023-05-16T04:53:58;24.70;43.50
80250;DHT22;69561;37.974;23.708;2023-05-16T04:56:24;24.80;43.50
80250;DHT22;69561;37.974;23.708;2023-05-16T04:58:51;24.80;43.40
80250;DHT22;69561;37.974;23.708;2023-05-16T05:01:16;24.80;43.30
80250;DHT22;69561;37.974;23.708;2023-05-16T05:03:42;24.80;43.20
80250;DHT22;69561;37.974;23.708;2023-05-16T05:06:08;24.80;43.20
80250;DHT22;69561;37.974;23.708;2023-05-16T05:08:34;24.80;43.10
80250;DHT22;69561;37.974;23.708;2023-05-16T05:11:00;24.70;43.10
80250;DHT22;69561;37.974;23.708;2023-05-16T05:13:26;24.70;43.10
80250;DHT22;69561;37.974;23.708;2023-05-16T05:15:51;24.70;43.10
80250;DHT22;69561;37.974;23.708;2023-05-16T05:18:17;24.70;43.10
80250;DHT22;69561;37.974;23.708;2023-05-16T05:20:43;24.70;43.10
80250;DHT22;69561;37.974;23.708;2023-05-16T05:23:09;24.70;43.20
80250;DHT22;69561;37.974;23.708;2023-05-16T05:25:35;24.60;43.20
80250;DHT22;69561;37.974;23.708;2023-05-16T05:28:01;24.60;43.20
80250;DHT22;69561;37.974;23.708;2023-05-16T05:30:28;24.60;43.30
80250;DHT22;69561;37.974;23.708;2023-05-16T05:32:54;24.60;43.30
80250;DHT22;69561;37.974;23.708;2023-05-16T05:35:20;24.60;43.40
80250;DHT22;69561;37.974;23.708;2023-05-16T05:37:45;24.60;43.40
80250;DHT22;69561;37.974;23.708;2023-05-16T05:40:12;24.60;43.30
80250;DHT22;69561;37.974;23.708;2023-05-16T05:42:38;24.60;43.20
80250;DHT22;69561;37.974;23.708;2023-05-16T05:45:04;24.70;43.20
80250;DHT22;69561;37.974;23.708;2023-05-16T05:47:30;24.70;43.00
80250;DHT22;69561;37.974;23.708;2023-05-16T05:49:56;24.80;42.90
80250;DHT22;69561;37.974;23.708;2023-05-16T05:52:22;24.70;42.60
80250;DHT22;69561;37.974;23.708;2023-05-16T05:54:47;24.80;42.60
80250;DHT22;69561;37.974;23.708;2023-05-16T05:57:13;24.80;42.40
80250;DHT22;69561;37.974;23.708;2023-05-16T05:59:39;24.80;42.30
80250;DHT22;69561;37.974;23.708;2023-05-16T06:02:05;24.80;42.20
80250;DHT22;69561;37.974;23.708;2023-05-16T06:04:31;24.80;42.20
80250;DHT22;69561;37.974;23.708;2023-05-16T06:06:57;24.80;42.20
80250;DHT22;69561;37.974;23.708;2023-05-16T06:09:23;24.80;42.00
80250;DHT22;69561;37.974;23.708;2023-05-16T06:11:49;24.80;41.90
80250;DHT22;69561;37.974;23.708;2023-05-16T06:14:14;24.80;41.90
80250;DHT22;69561;37.974;23.708;2023-05-16T06:16:40;24.80;41.70
80250;DHT22;69561;37.974;23.708;2023-05-16T06:19:06;24.80;41.70
80250;DHT22;69561;37.974;23.708;2023-05-16T06:21:32;24.80;41.70
80250;DHT22;69561;37.974;23.708;2023-05-16T06:23:58;24.80;41.70
80250;DHT22;69561;37.974;23.708;2023-05-16T06:26:24;24.80;41.60
80250;DHT22;69561;37.974;23.708;2023-05-16T06:28:50;24.80;41.60
80250;DHT22;69561;37.974;23.708;2023-05-16T06:31:15;24.80;41.60
80250;DHT22;69561;37.974;23.708;2023-05-16T06:33:41;24.80;41.60
80250;DHT22;69561;37.974;23.708;2023-05-16T06:36:07;24.80;41.60
80250;DHT22;69561;37.974;23.708;2023-05-16T06:38:32;24.70;41.60
80250;DHT22;69561;37.974;23.708;2023-05-16T06:40:58;24.80;41.60
80250;DHT22;69561;37.974;23.708;2023-05-16T06:43:24;24.80;41.50
80250;DHT22;69561;37.974;23.708;2023-05-16T06:45:50;24.80;41.50
80250;DHT22;69561;37.974;23.708;2023-05-16T06:48:17;24.80;41.50
80250;DHT22;69561;37.974;23.708;2023-05-16T06:50:49;24.80;41.50
80250;DHT22;69561;37.974;23.708;2023-05-16T06:53:18;24.80;41.50
80250;DHT22;69561;37.974;23.708;2023-05-16T06:55:44;24.80;41.50
80250;DHT22;69561;37.974;23.708;2023-05-16T06:58:10;24.80;41.60
80250;DHT22;69561;37.974;23.708;2023-05-16T07:00:36;24.80;41.60
80250;DHT22;69561;37.974;23.708;2023-05-16T07:03:02;24.80;41.70
80250;DHT22;69561;37.974;23.708;2023-05-16T07:05:31;24.90;41.80
80250;DHT22;69561;37.974;23.708;2023-05-16T07:07:56;24.90;41.80
80250;DHT22;69561;37.974;23.708;2023-05-16T07:10:22;24.90;41.80
80250;DHT22;69561;37.974;23.708;2023-05-16T07:12:48;24.90;41.80
80250;DHT22;69561;37.974;23.708;2023-05-16T07:15:14;24.90;41.70
80250;DHT22;69561;37.974;23.708;2023-05-16T07:17:39;24.90;41.70
80250;DHT22;69561;37.974;23.708;2023-05-16T07:20:06;24.90;41.70
80250;DHT22;69561;37.974;23.708;2023-05-16T07:22:34;24.90;41.60
80250;DHT22;69561;37.974;23.708;2023-05-16T07:25:00;25.00;41.60
80250;DHT22;69561;37.974;23.708;2023-05-16T07:27:26;25.00;41.60
80250;DHT22;69561;37.974;23.708;2023-05-16T07:29:52;25.00;41.70
80250;DHT22;69561;37.974;23.708;2023-05-16T07:32:18;25.00;41.60
80250;DHT22;69561;37.974;23.708;2023-05-16T07:34:44;25.00;41.60
80250;DHT22;69561;37.974;23.708;2023-05-16T07:37:10;25.00;41.60
80250;DHT22;69561;37.974;23.708;2023-05-16T07:39:40;25.10;41.50
80250;DHT22;69561;37.974;23.708;2023-05-16T07:42:07;25.10;41.20
80250;DHT22;69561;37.974;23.708;2023-05-16T07:44:33;25.10;41.20
80250;DHT22;69561;37.974;23.708;2023-05-16T07:46:59;25.20;41.20
80250;DHT22;69561;37.974;23.708;2023-05-16T07:49:25;25.10;42.10
80250;DHT22;69561;37.974;23.708;2023-05-16T07:51:51;25.20;41.20
80250;DHT22;69561;37.974;23.708;2023-05-16T07:54:17;25.20;41.10
80250;DHT22;69561;37.974;23.708;2023-05-16T07:56:42;25.20;41.10
80250;DHT22;69561;37.974;23.708;2023-05-16T07:59:09;25.20;41.00
80250;DHT22;69561;37.974;23.708;2023-05-16T08:01:35;25.30;41.10
80250;DHT22;69561;37.974;23.708;2023-05-16T08:04:01;25.20;41.10
80250;DHT22;69561;37.974;23.708;2023-05-16T08:06:27;25.30;41.20
80250;DHT22;69561;37.974;23.708;2023-05-16T08:08:54;25.30;41.20
80250;DHT22;69561;37.974;23.708;2023-05-16T08:11:21;25.30;41.20
80250;DHT22;69561;37.974;23.708;2023-05-16T08:13:50;25.30;41.20
80250;DHT22;69561;37.974;23.708;2023-05-16T08:16:15;25.30;41.10
80250;DHT22;69561;37.974;23.708;2023-05-16T08:18:41;25.30;41.00
80250;DHT22;69561;37.974;23.708;2023-05-16T08:21:07;25.30;41.10
80250;DHT22;69561;37.974;23.708;2023-05-16T08:23:33;25.40;41.10
80250;DHT22;69561;37.974;23.708;2023-05-16T08:26:00;25.40;41.00
80250;DHT22;69561;37.974;23.708;2023-05-16T08:28:27;25.40;41.00
80250;DHT22;69561;37.974;23.708;2023-05-16T08:30:53;25.40;41.00
80250;DHT22;69561;37.974;23.708;2023-05-16T08:33:19;25.40;41.00
80250;DHT22;69561;37.974;23.708;2023-05-16T08:35:45;25.40;41.00
80250;DHT22;69561;37.974;23.708;2023-05-16T08:38:11;25.40;41.10
80250;DHT22;69561;37.974;23.708;2023-05-16T08:40:36;25.40;41.10
80250;DHT22;69561;37.974;23.708;2023-05-16T08:43:02;25.40;41.00
80250;DHT22;69561;37.974;23.708;2023-05-16T08:45:29;25.40;41.00
80250;DHT22;69561;37.974;23.708;2023-05-16T08:47:55;25.40;41.00
80250;DHT22;69561;37.974;23.708;2023-05-16T08:50:23;25.40;41.00
80250;DHT22;69561;37.974;23.708;2023-05-16T08:52:51;25.50;41.10
80250;DHT22;69561;37.974;23.708;2023-05-16T08:55:19;25.50;41.10
80250;DHT22;69561;37.974;23.708;2023-05-16T08:57:47;25.50;41.10
80250;DHT22;69561;37.974;23.708;2023-05-16T09:00:14;25.50;41.20
80250;DHT22;69561;37.974;23.708;2023-05-16T09:02:41;25.50;41.10
80250;DHT22;69561;37.974;23.708;2023-05-16T09:05:08;25.50;42.10
80250;DHT22;69561;37.974;23.708;2023-05-16T09:07:35;25.50;41.00
80250;DHT22;69561;37.974;23.708;2023-05-16T09:10:01;25.50;41.10
80250;DHT22;69561;37.974;23.708;2023-05-16T09:12:27;25.50;41.10
80250;DHT22;69561;37.974;23.708;2023-05-16T09:14:53;25.50;41.10
80250;DHT22;69561;37.974;23.708;2023-05-16T09:17:21;25.50;41.20
80250;DHT22;69561;37.974;23.708;2023-05-16T09:22:40;25.50;41.30
80250;DHT22;69561;37.974;23.708;2023-05-16T09:25:16;25.50;41.10
80250;DHT22;69561;37.974;23.708;2023-05-16T09:27:42;25.50;41.10
80250;DHT22;69561;37.974;23.708;2023-05-16T09:30:08;25.50;41.10
80250;DHT22;69561;37.974;23.708;2023-05-16T09:32:34;25.50;41.80
80250;DHT22;69561;37.974;23.708;2023-05-16T09:35:00;25.60;41.30
80250;DHT22;69561;37.974;23.708;2023-05-16T09:37:25;25.60;41.40
80250;DHT22;69561;37.974;23.708;2023-05-16T09:39:53;25.60;41.40
80250;DHT22;69561;37.974;23.708;2023-05-16T09:42:21;25.60;41.50
80250;DHT22;69561;37.974;23.708;2023-05-16T09:44:52;25.60;41.50
80250;DHT22;69561;37.974;23.708;2023-05-16T09:47:18;25.50;41.30
80250;DHT22;69561;37.974;23.708;2023-05-16T09:49:46;25.50;41.30
80250;DHT22;69561;37.974;23.708;2023-05-16T09:52:13;25.50;41.20
80250;DHT22;69561;37.974;23.708;2023-05-16T09:54:39;25.50;41.30
80250;DHT22;69561;37.974;23.708;2023-05-16T09:57:05;25.50;41.40
80250;DHT22;69561;37.974;23.708;2023-05-16T09:59:35;25.60;41.50
80250;DHT22;69561;37.974;23.708;2023-05-16T10:02:02;25.60;41.60
80250;DHT22;69561;37.974;23.708;2023-05-16T10:04:30;25.60;41.80
80250;DHT22;69561;37.974;23.708;2023-05-16T10:06:56;25.60;42.00
80250;DHT22;69561;37.974;23.708;2023-05-16T10:09:22;25.60;42.00
80250;DHT22;69561;37.974;23.708;2023-05-16T10:11:51;25.60;42.10
80250;DHT22;69561;37.974;23.708;2023-05-16T10:14:18;25.60;42.10
80250;DHT22;69561;37.974;23.708;2023-05-16T10:16:46;25.60;42.20
80250;DHT22;69561;37.974;23.708;2023-05-16T10:19:16;25.70;42.50
80250;DHT22;69561;37.974;23.708;2023-05-16T10:21:45;25.60;42.60
80250;DHT22;69561;37.974;23.708;2023-05-16T10:24:15;25.60;42.80
80250;DHT22;69561;37.974;23.708;2023-05-16T10:26:42;25.60;43.00
80250;DHT22;69561;37.974;23.708;2023-05-16T10:29:08;25.60;43.30
80250;DHT22;69561;37.974;23.708;2023-05-16T10:31:35;25.60;43.40
80250;DHT22;69561;37.974;23.708;2023-05-16T10:34:02;25.60;43.50
80250;DHT22;69561;37.974;23.708;2023-05-16T10:36:28;25.60;43.40
80250;DHT22;69561;37.974;23.708;2023-05-16T10:38:56;25.60;43.60
80250;DHT22;69561;37.974;23.708;2023-05-16T10:41:23;25.60;43.90
80250;DHT22;69561;37.974;23.708;2023-05-16T10:43:56;25.60;43.90
80250;DHT22;69561;37.974;23.708;2023-05-16T10:46:23;25.70;44.00
80250;DHT22;69561;37.974;23.708;2023-05-16T10:48:49;25.60;44.00
80250;DHT22;69561;37.974;23.708;2023-05-16T10:53:47;25.60;45.20
80250;DHT22;69561;37.974;23.708;2023-05-16T10:56:12;25.60;44.40
80250;DHT22;69561;37.974;23.708;2023-05-16T10:58:40;25.60;44.50
80250;DHT22;69561;37.974;23.708;2023-05-16T11:12:02;25.60;45.40
80250;DHT22;69561;37.974;23.708;2023-05-16T11:17:14;25.60;45.80
80250;DHT22;69561;37.974;23.708;2023-05-16T11:25:04;25.70;45.80
80250;DHT22;69561;37.974;23.708;2023-05-16T11:32:33;25.70;46.00
80250;DHT22;69561;37.974;23.708;2023-05-16T11:34:59;25.70;45.90
80250;DHT22;69561;37.974;23.708;2023-05-16T11:37:26;25.60;46.00
80250;DHT22;69561;37.974;23.708;2023-05-16T11:39:52;25.70;46.00
80250;DHT22;69561;37.974;23.708;2023-05-16T11:42:19;25.70;45.90
80250;DHT22;69561;37.974;23.708;2023-05-16T11:44:45;25.70;45.90
80250;DHT22;69561;37.974;23.708;2023-05-16T11:47:11;25.70;45.80
80250;DHT22;69561;37.974;23.708;2023-05-16T11:49:37;25.70;45.70
80250;DHT22;69561;37.974;23.708;2023-05-16T11:52:06;25.70;45.60
80250;DHT22;69561;37.974;23.708;2023-05-16T11:54:33;25.70;45.50
80250;DHT22;69561;37.974;23.708;2023-05-16T11:56:59;25.70;45.50
80250;DHT22;69561;37.974;23.708;2023-05-16T11:59:26;25.70;45.40
80250;DHT22;69561;37.974;23.708;2023-05-16T12:01:52;25.70;45.30
80250;DHT22;69561;37.974;23.708;2023-05-16T12:04:18;25.80;45.40
80250;DHT22;69561;37.974;23.708;2023-05-16T12:06:57;25.80;45.30
80250;DHT22;69561;37.974;23.708;2023-05-16T12:09:23;25.80;45.20
80250;DHT22;69561;37.974;23.708;2023-05-16T12:11:51;25.80;45.10
80250;DHT22;69561;37.974;23.708;2023-05-16T12:14:17;25.80;45.00
80250;DHT22;69561;37.974;23.708;2023-05-16T12:16:43;25.80;45.00
80250;DHT22;69561;37.974;23.708;2023-05-16T12:19:11;25.80;45.00
80250;DHT22;69561;37.974;23.708;2023-05-16T12:21:37;25.80;44.90
80250;DHT22;69561;37.974;23.708;2023-05-16T12:24:03;25.70;44.80
80250;DHT22;69561;37.974;23.708;2023-05-16T12:26:32;25.80;44.80
80250;DHT22;69561;37.974;23.708;2023-05-16T12:29:01;25.80;44.70
80250;DHT22;69561;37.974;23.708;2023-05-16T12:31:29;25.90;44.70
80250;DHT22;69561;37.974;23.708;2023-05-16T12:33:56;25.80;44.60
80250;DHT22;69561;37.974;23.708;2023-05-16T12:36:22;25.80;44.80
80250;DHT22;69561;37.974;23.708;2023-05-16T12:38:49;25.80;44.80
80250;DHT22;69561;37.974;23.708;2023-05-16T12:41:23;25.70;44.90
80250;DHT22;69561;37.974;23.708;2023-05-16T12:43:49;25.70;44.90
80250;DHT22;69561;37.974;23.708;2023-05-16T12:46:15;25.70;45.00
80250;DHT22;69561;37.974;23.708;2023-05-16T12:48:41;25.70;45.00
80250;DHT22;69561;37.974;23.708;2023-05-16T12:51:17;25.70;45.00
80250;DHT22;69561;37.974;23.708;2023-05-16T12:53:45;25.70;45.00
80250;DHT22;69561;37.974;23.708;2023-05-16T12:56:12;25.70;45.00
80250;DHT22;69561;37.974;23.708;2023-05-16T12:58:38;25.70;45.00
80250;DHT22;69561;37.974;23.708;2023-05-16T13:01:05;25.70;45.00
80250;DHT22;69561;37.974;23.708;2023-05-16T13:03:31;25.70;45.00
80250;DHT22;69561;37.974;23.708;2023-05-16T13:05:57;25.70;44.90
80250;DHT22;69561;37.974;23.708;2023-05-16T13:08:24;25.80;45.00
80250;DHT22;69561;37.974;23.708;2023-05-16T13:10:50;25.80;44.90
80250;DHT22;69561;37.974;23.708;2023-05-16T13:13:16;25.80;44.90
80250;DHT22;69561;37.974;23.708;2023-05-16T13:15:44;25.70;44.90
80250;DHT22;69561;37.974;23.708;2023-05-16T13:18:10;25.80;45.00
80250;DHT22;69561;37.974;23.708;2023-05-16T13:20:38;25.80;45.00
80250;DHT22;69561;37.974;23.708;2023-05-16T13:23:04;25.80;45.00
80250;DHT22;69561;37.974;23.708;2023-05-16T13:25:31;25.80;45.00
80250;DHT22;69561;37.974;23.708;2023-05-16T13:27:57;25.70;45.00
80250;DHT22;69561;37.974;23.708;2023-05-16T13:30:23;25.70;45.10
80250;DHT22;69561;37.974;23.708;2023-05-16T13:32:49;25.80;45.30
80250;DHT22;69561;37.974;23.708;2023-05-16T13:35:17;25.70;45.30
80250;DHT22;69561;37.974;23.708;2023-05-16T13:37:43;25.80;45.30
80250;DHT22;69561;37.974;23.708;2023-05-16T13:40:08;25.80;45.40
80250;DHT22;69561;37.974;23.708;2023-05-16T13:42:35;25.80;45.50
80250;DHT22;69561;37.974;23.708;2023-05-16T13:45:04;25.80;45.60
80250;DHT22;69561;37.974;23.708;2023-05-16T13:47:30;25.80;45.70
80250;DHT22;69561;37.974;23.708;2023-05-16T13:49:57;25.70;45.60
80250;DHT22;69561;37.974;23.708;2023-05-16T13:52:24;25.70;45.80
80250;DHT22;69561;37.974;23.708;2023-05-16T13:54:49;25.80;45.90
80250;DHT22;69561;37.974;23.708;2023-05-16T13:57:17;25.70;46.00
80250;DHT22;69561;37.974;23.708;2023-05-16T13:59:43;25.70;45.90
80250;DHT22;69561;37.974;23.708;2023-05-16T14:02:09;25.70;45.90
80250;DHT22;69561;37.974;23.708;2023-05-16T14:04:35;25.70;46.00
80250;DHT22;69561;37.974;23.708;2023-05-16T14:07:00;25.70;46.10
80250;DHT22;69561;37.974;23.708;2023-05-16T14:09:26;25.70;46.10
80250;DHT22;69561;37.974;23.708;2023-05-16T14:11:52;25.70;46.20
80250;DHT22;69561;37.974;23.708;2023-05-16T14:14:18;25.70;46.30
80250;DHT22;69561;37.974;23.708;2023-05-16T14:16:43;25.70;46.50
80250;DHT22;69561;37.974;23.708;2023-05-16T14:19:10;25.60;46.40
80250;DHT22;69561;37.974;23.708;2023-05-16T14:21:38;25.60;46.40
80250;DHT22;69561;37.974;23.708;2023-05-16T14:24:05;25.60;46.50
80250;DHT22;69561;37.974;23.708;2023-05-16T14:26:30;25.60;46.70
80250;DHT22;69561;37.974;23.708;2023-05-16T14:28:57;25.60;47.00
80250;DHT22;69561;37.974;23.708;2023-05-16T14:31:23;25.60;46.90
80250;DHT22;69561;37.974;23.708;2023-05-16T14:33:48;25.60;47.00
80250;DHT22;69561;37.974;23.708;2023-05-16T14:36:15;25.50;46.90
80250;DHT22;69561;37.974;23.708;2023-05-16T14:38:41;25.50;47.00
80250;DHT22;69561;37.974;23.708;2023-05-16T14:41:07;25.50;48.20
80250;DHT22;69561;37.974;23.708;2023-05-16T14:43:32;25.50;47.20
80250;DHT22;69561;37.974;23.708;2023-05-16T14:45:58;25.50;47.40
80250;DHT22;69561;37.974;23.708;2023-05-16T14:48:24;25.50;47.60
80250;DHT22;69561;37.974;23.708;2023-05-16T14:50:50;25.50;47.70
80250;DHT22;69561;37.974;23.708;2023-05-16T14:53:19;25.50;47.90
80250;DHT22;69561;37.974;23.708;2023-05-16T14:55:46;25.40;48.10
80250;DHT22;69561;37.974;23.708;2023-05-16T14:58:12;25.40;48.20
80250;DHT22;69561;37.974;23.708;2023-05-16T15:00:38;25.40;48.50
80250;DHT22;69561;37.974;23.708;2023-05-16T15:03:03;25.40;48.80
80250;DHT22;69561;37.974;23.708;2023-05-16T15:05:29;25.40;49.00
80250;DHT22;69561;37.974;23.708;2023-05-16T15:07:55;25.30;49.00
80250;DHT22;69561;37.974;23.708;2023-05-16T15:10:21;25.30;49.00
80250;DHT22;69561;37.974;23.708;2023-05-16T15:12:46;25.30;48.90
80250;DHT22;69561;37.974;23.708;2023-05-16T15:15:12;25.30;48.30
80250;DHT22;69561;37.974;23.708;2023-05-16T15:17:39;25.30;47.70
80250;DHT22;69561;37.974;23.708;2023-05-16T15:20:09;25.30;47.20
80250;DHT22;69561;37.974;23.708;2023-05-16T15:22:36;25.30;46.90
80250;DHT22;69561;37.974;23.708;2023-05-16T15:25:02;25.30;46.80
80250;DHT22;69561;37.974;23.708;2023-05-16T15:27:30;25.30;46.60
80250;DHT22;69561;37.974;23.708;2023-05-16T15:29:56;25.30;46.70
80250;DHT22;69561;37.974;23.708;2023-05-16T15:32:22;25.30;46.70
80250;DHT22;69561;37.974;23.708;2023-05-16T15:34:48;25.20;46.70
80250;DHT22;69561;37.974;23.708;2023-05-16T15:37:14;25.30;46.80
80250;DHT22;69561;37.974;23.708;2023-05-16T15:39:39;25.30;46.90
80250;DHT22;69561;37.974;23.708;2023-05-16T15:42:06;25.30;46.90
80250;DHT22;69561;37.974;23.708;2023-05-16T15:44:32;25.30;47.00
80250;DHT22;69561;37.974;23.708;2023-05-16T15:46:59;25.30;47.10
80250;DHT22;69561;37.974;23.708;2023-05-16T15:49:25;25.30;47.10
80250;DHT22;69561;37.974;23.708;2023-05-16T15:51:51;25.30;47.20
80250;DHT22;69561;37.974;23.708;2023-05-16T15:54:17;25.30;47.20